Main page
METAR-TAF:

METAR-TAF

Airports :

Le Touquet, France

Le Touquet – Côte d'Opale Airport

latitude: 50-30-53N, longitude: 001-37-39E, elevation: 6 m

Current weather observation

The report was made 30 minutes ago, at 02:00 UTC
Calm wind
Temperature 1°C
Humidity 93%
Pressure 1023 hPa
Visibility 10 km or more
no clouds below 1500 m and no cumulonimbus

METAR: LFAT 170200Z AUTO 00000KT CAVOK 01/M00 Q1023

Time: 03:30 (02:30 UTC)

Forecast

The report was made 12 hours and 30 minutes ago, at 14:00 UTC
Forecast valid from 16 at 15 UTC to 16 at 24 UTC
Wind 10 kt from the Northwest
Visibility 10 km or more
no clouds below 1500 m and no cumulonimbus
Temporary
from 16 at 18 UTC to 16 at 21 UTC
Visibility: 3000 m
Overcast at a height of 800 ft
rain

TAF: LFAT 161400Z 1615/1624 32010KT CAVOK TEMPO 1618/1621 3000 RA OVC008

Weather observations and forecasts of more than 4000 airports (METAR and TAF reports).

The available stations are represented by yellow and red dots on the map.

Hover mouse over dot to see the name of the station.

Then click to see weather observations and forecasts.

To change the map : click on the green buttons with a black cross to zoom in, on the green button with a dash to zoom out, or on the green arrows for adjacent maps.


METAR-TAF: